METAR Data
IDs: Format: Raw Decoded Include TAF

Data at: 2030 UTC 19 Jan 2019

Region: TOP
KATL 192017Z 17012G21KT 6SM -RA BKN025 BKN038 OVC080 17/14 A2966 RMK AO2 P0001 T01720139 $

KBOS 191954Z 05008KT 3SM -SN OVC022 M01/M07 A3024 RMK AO2 SNB41 SLP240 P0000 T10111067

KBWI 191954Z 09011KT 10SM OVC021 03/M01 A3007 RMK AO2 SLP184 T00281011

KCLE 191951Z 04017KT 1/2SM SN FZFG SCT007 BKN018 OVC031 M03/M04 A2984 RMK AO2 SLP115 P0002 T10281044

KCLT 191952Z 15014KT 2SM -RA BR OVC005 12/12 A2983 RMK AO2 RAB10 SLP099 P0002 T01170117

KCVG 191952Z 04011KT 1/4SM R18C/P6000FT -RA BR OVC003 03/03 A2954 RMK AO2 SFC VIS 3 SLP004 P0004 T00330028

KDCA 192017Z 08009KT 6SM HZ OVC015 04/01 A3004 RMK AO2 T00440006

KDEN 191953Z 19009KT 10SM FEW090 FEW130 SCT220 07/M09 A3009 RMK AO2 SLP193 T00721094

KDFW 191953Z 33027G35KT 10SM BKN030 03/M05 A3014 RMK AO2 PK WND 33038/1910 SLP206 T00331050

KDTW 191953Z 04012KT 1 1/2SM -SN BKN025 OVC035 M07/M10 A2995 RMK AO2 TWR VIS 2 SLP152 P0000 T10671100 $

KEWR 192014Z 09006KT 10SM BKN025 OVC050 02/M04 A3016 RMK AO2 T00221039

KFLL 191953Z AUTO 15014KT 10SM CLR 25/16 A2999 RMK AO2 SLP154 T02500161

KIAD 191952Z 11006KT 4SM BR OVC013 03/01 A3003 RMK AO2 RAE22DZB22E51 SLP169 P0000 T00280011 $

KIAH 191953Z 31022G30KT 10SM SCT039 10/02 A3005 RMK AO2 PK WND 31033/1855 SLP175 T01000017

KJFK 191951Z 10006KT 10SM SCT034 OVC044 02/M03 A3018 RMK AO2 SLP221 T00221033

KLAS 191956Z 00000KT 10SM BKN250 14/M02 A3039 RMK AO2 SLP285 T01441017

KLAX 191953Z VRB05KT 10SM FEW200 24/06 A3024 RMK AO2 SLP238 T02390061 $

KLGA 191951Z 12008KT 10SM OVC034 03/M07 A3017 RMK AO2 SLP215 T00281067

KMCO 191953Z 18014KT 10SM FEW060 SCT250 26/12 A2994 RMK AO2 SLP136 T02610117

KMDW 191953Z 03022G32KT 10SM OVC011 M03/M06 A2995 RMK AO2 PK WND 02032/1938 SLP156 PRESENT WX DRSN T10331056

KMEM 191954Z 31020G28KT 9SM -RA OVC010 06/04 A2962 RMK AO2 PK WND 31028/1954 RAB1855 CIG 008V015 SLP029 P0000 T00560044 $

KMIA 191953Z 13011G22KT 10SM FEW035 OVC250 24/16 A3000 RMK AO2 SLP159 T02440156

KMSP 191953Z 33008KT 10SM FEW200 M12/M19 A3034 RMK AO2 SLP296 T11221194

KORD 191951Z 03023G32KT 5SM R10L/5000VP6000FT BLSN OVC015 M04/M06 A2997 RMK AO2 PK WND 03032/1937 SLP158 T10391061 $

KPDX 191953Z 00000KT 10SM FEW045 OVC200 08/06 A3021 RMK AO2 SLP228 T00830056

KPHL 191954Z 06005KT 10SM OVC048 03/M03 A3013 RMK AO2 SLP202 T00281033

KPHX 191951Z 00000KT 10SM SCT250 19/M05 A3026 RMK AO2 SLP240 T01941050 $

KPIT 192010Z 10007KT 5SM -RA BR FEW014 BKN024 OVC034 02/00 A2976 RMK AO2 P0000 T00170000

KSAN 191951Z 31006KT 10SM FEW250 21/09 A3023 RMK AO2 SLP237 T02110094

KSEA 191953Z 19012KT 10SM SCT035 SCT048 BKN060 10/06 A3014 RMK AO2 SLP212 T01000056

KSFO 191956Z 02005KT 10SM FEW038 BKN200 16/11 A3033 RMK AO2 SLP271 T01560106 $

KSLC 191954Z 18009KT 10SM OVC036 04/M03 A3041 RMK AO2 SLP306 T00391028

KSTL 191951Z 35025G36KT 10SM -SN OVC013 M02/M04 A2983 RMK AO2 PK WND 34036/1915 SNE11B48 SLP109 P0000 T10171039

KTPA 191953Z 20015KT 10SM FEW035 BKN350 23/16 A2995 RMK AO2 SLP140 T02330161